Time;durP1;ratioP1;P1;durP2;ratioP2;P2;SDS_P1;SDS_P2;PMS_P1;PMS_P2;Temp;Humidity;BMP_temperature;BMP_pressure;BME280_temperature;BME280_humidity;BME280_pressure;Samples;Min_cycle;Max_cycle;Signal;HPM_P1;HPM_P2
2021/03/23 00:00:46;;;;;;;25.10;10.38;;;;;;;;;;4992173;28;20026;-69
2021/03/23 00:03:16;;;;;;;29.95;10.48;;;;;;;;;;4988044;28;20050;-69
2021/03/23 00:05:43;;;;;;;30.95;10.05;;;;;;;;;;4987389;28;20065;-69
2021/03/23 00:08:25;;;;;;;22.05;9.85;;;;;;;;;;4984924;28;20094;-69
2021/03/23 00:10:51;;;;;;;37.88;12.23;;;;;;;;;;4988057;28;20409;-69
2021/03/23 00:13:17;;;;;;;32.22;11.23;;;;;;;;;;4988298;28;20496;-69
2021/03/23 00:15:44;;;;;;;31.35;13.57;;;;;;;;;;4991162;28;20037;-70
2021/03/23 00:18:10;;;;;;;26.45;11.32;;;;;;;;;;4988185;28;20041;-69
2021/03/23 00:20:37;;;;;;;26.15;11.48;;;;;;;;;;4981972;28;20031;-69
2021/03/23 00:23:03;;;;;;;31.60;13.30;;;;;;;;;;4990082;28;20441;-69
2021/03/23 00:25:29;;;;;;;28.45;12.43;;;;;;;;;;4992305;28;20516;-69
2021/03/23 00:27:55;;;;;;;38.70;12.88;;;;;;;;;;4984311;28;20504;-69
2021/03/23 00:30:21;;;;;;;30.63;12.20;;;;;;;;;;4978894;28;20023;-69
2021/03/23 00:32:47;;;;;;;32.28;11.82;;;;;;;;;;4986052;28;20026;-69
2021/03/23 00:35:13;;;;;;;38.55;13.93;;;;;;;;;;4990489;28;20097;-69
2021/03/23 00:37:40;;;;;;;37.75;14.55;;;;;;;;;;4980380;28;20057;-69
2021/03/23 00:40:09;;;;;;;33.13;14.82;;;;;;;;;;4984011;28;20432;-69
2021/03/23 00:42:36;;;;;;;40.33;15.13;;;;;;;;;;4986448;28;20543;-69
2021/03/23 00:45:04;;;;;;;37.70;17.38;;;;;;;;;;4987250;28;20038;-69
2021/03/23 00:47:30;;;;;;;38.80;17.08;;;;;;;;;;4989803;28;20026;-69
2021/03/23 00:49:56;;;;;;;40.75;17.33;;;;;;;;;;4977808;28;20038;-69
2021/03/23 00:52:22;;;;;;;38.25;18.02;;;;;;;;;;4977761;28;20026;-68
2021/03/23 00:54:50;;;;;;;41.65;17.05;;;;;;;;;;4985917;28;20105;-69
2021/03/23 00:57:16;;;;;;;42.70;17.10;;;;;;;;;;4986629;28;20043;-69
2021/03/23 00:59:42;;;;;;;42.38;18.60;;;;;;;;;;4977121;28;20479;-69
2021/03/23 01:02:08;;;;;;;45.83;19.70;;;;;;;;;;4980519;28;20098;-69
2021/03/23 01:04:34;;;;;;;51.30;22.05;;;;;;;;;;4988109;28;20133;-69
2021/03/23 01:07:00;;;;;;;51.33;21.95;;;;;;;;;;4990666;28;20030;-69
2021/03/23 01:09:26;;;;;;;51.97;22.50;;;;;;;;;;4983279;28;20117;-69
2021/03/23 01:11:53;;;;;;;50.63;23.40;;;;;;;;;;4979906;28;20039;-69
2021/03/23 01:14:19;;;;;;;45.78;22.20;;;;;;;;;;4975954;28;20027;-69
2021/03/23 01:16:45;;;;;;;48.75;22.73;;;;;;;;;;4977741;28;20039;-68
2021/03/23 01:19:12;;;;;;;49.83;22.58;;;;;;;;;;4985894;28;20033;-69
2021/03/23 01:21:38;;;;;;;53.75;24.27;;;;;;;;;;4977323;28;20512;-68
2021/03/23 01:24:04;;;;;;;51.03;23.20;;;;;;;;;;4989805;28;20061;-69
2021/03/23 01:26:30;;;;;;;58.35;23.88;;;;;;;;;;4981963;28;20049;-69
2021/03/23 01:28:56;;;;;;;53.60;23.90;;;;;;;;;;4984926;28;20030;-68
2021/03/23 01:31:22;;;;;;;51.65;24.75;;;;;;;;;;4985314;28;20512;-69
2021/03/23 01:33:48;;;;;;;56.42;24.50;;;;;;;;;;4984433;28;20511;-69
2021/03/23 01:36:14;;;;;;;56.55;26.92;;;;;;;;;;4985877;28;20034;-69
2021/03/23 01:38:40;;;;;;;62.17;28.38;;;;;;;;;;4984607;28;20045;-69
2021/03/23 01:41:06;;;;;;;54.92;28.13;;;;;;;;;;4982730;28;21120;-69
2021/03/23 01:43:33;;;;;;;72.57;28.63;;;;;;;;;;4986575;28;20018;-68
2021/03/23 01:46:01;;;;;;;66.57;30.27;;;;;;;;;;4990755;28;20034;-69
2021/03/23 01:48:29;;;;;;;67.70;31.10;;;;;;;;;;4986781;28;20026;-69
2021/03/23 01:50:58;;;;;;;68.60;31.05;;;;;;;;;;4986936;28;20034;-68
2021/03/23 01:53:30;;;;;;;69.80;32.00;;;;;;;;;;4983711;28;20049;-69
2021/03/23 01:55:57;;;;;;;70.65;32.97;;;;;;;;;;4985255;28;20022;-69
2021/03/23 01:58:25;;;;;;;65.63;31.65;;;;;;;;;;4983037;28;20049;-69
2021/03/23 02:00:51;;;;;;;71.75;32.28;;;;;;;;;;4984496;28;20153;-69
2021/03/23 02:03:18;;;;;;;72.90;33.38;;;;;;;;;;4986883;28;20034;-69
2021/03/23 02:05:44;;;;;;;78.15;35.80;;;;;;;;;;4989120;28;20129;-69
2021/03/23 02:08:10;;;;;;;76.07;36.33;;;;;;;;;;4977243;28;20121;-69
2021/03/23 02:10:36;;;;;;;80.97;36.80;;;;;;;;;;4980388;28;20036;-69
2021/03/23 02:13:04;;;;;;;78.63;36.50;;;;;;;;;;4987797;28;20115;-69
2021/03/23 02:15:30;;;;;;;81.90;37.75;;;;;;;;;;4979798;28;20026;-69
2021/03/23 02:18:14;;;;;;;86.55;39.60;;;;;;;;;;4986375;28;20480;-68
2021/03/23 02:20:59;;;;;;;77.25;35.67;;;;;;;;;;4980832;28;20114;-69
2021/03/23 02:23:26;;;;;;;70.18;33.75;;;;;;;;;;4986352;28;20058;-69
2021/03/23 02:25:52;;;;;;;69.05;34.92;;;;;;;;;;4974693;28;20085;-68
2021/03/23 02:28:19;;;;;;;77.70;37.17;;;;;;;;;;4983376;28;20023;-69
2021/03/23 02:30:47;;;;;;;77.20;36.63;;;;;;;;;;4987811;28;20022;-69
2021/03/23 02:33:13;;;;;;;84.55;38.65;;;;;;;;;;4974851;28;20027;-69
2021/03/23 02:35:39;;;;;;;83.63;39.72;;;;;;;;;;4984801;28;20006;-69
2021/03/23 02:38:05;;;;;;;69.75;36.17;;;;;;;;;;4987134;28;20080;-69
2021/03/23 02:40:32;;;;;;;84.30;36.20;;;;;;;;;;4982276;28;20027;-68
2021/03/23 02:42:58;;;;;;;89.88;40.60;;;;;;;;;;4982204;28;20166;-68
2021/03/23 02:45:24;;;;;;;73.72;37.20;;;;;;;;;;4986010;28;20023;-68
2021/03/23 02:47:50;;;;;;;79.38;39.10;;;;;;;;;;4990352;28;20032;-68
2021/03/23 02:50:17;;;;;;;80.88;36.88;;;;;;;;;;4992553;28;20065;-69
2021/03/23 02:52:43;;;;;;;86.10;40.05;;;;;;;;;;4982730;28;20033;-69
2021/03/23 02:55:09;;;;;;;92.20;41.67;;;;;;;;;;4989778;28;20051;-68
2021/03/23 02:57:36;;;;;;;92.55;41.22;;;;;;;;;;4987879;28;20030;-69
2021/03/23 03:00:03;;;;;;;89.10;39.63;;;;;;;;;;4986458;28;20706;-69
2021/03/23 03:02:29;;;;;;;83.63;38.30;;;;;;;;;;4991923;28;20053;-69
2021/03/23 03:04:55;;;;;;;82.85;37.13;;;;;;;;;;4987653;28;20058;-69
2021/03/23 03:07:21;;;;;;;80.75;38.15;;;;;;;;;;4985229;28;20026;-69
2021/03/23 03:09:47;;;;;;;85.75;38.60;;;;;;;;;;4975879;28;20034;-69
2021/03/23 03:12:13;;;;;;;83.63;35.65;;;;;;;;;;4986809;28;20018;-69
2021/03/23 03:14:39;;;;;;;76.25;35.75;;;;;;;;;;4984227;28;20034;-69
2021/03/23 03:17:06;;;;;;;85.55;38.13;;;;;;;;;;4983360;28;20034;-69
2021/03/23 03:19:32;;;;;;;73.53;36.28;;;;;;;;;;4983203;28;20022;-69
2021/03/23 03:21:58;;;;;;;77.18;36.50;;;;;;;;;;4985241;28;20031;-69
2021/03/23 03:24:24;;;;;;;82.93;37.65;;;;;;;;;;4990529;28;20026;-69
2021/03/23 03:26:50;;;;;;;78.53;36.63;;;;;;;;;;4993186;28;20507;-68
2021/03/23 03:29:16;;;;;;;91.45;41.15;;;;;;;;;;4982661;28;20138;-68
2021/03/23 03:31:42;;;;;;;92.90;38.33;;;;;;;;;;4984636;28;20089;-68
2021/03/23 03:34:08;;;;;;;84.05;36.65;;;;;;;;;;4989678;28;20038;-68
2021/03/23 03:36:35;;;;;;;85.38;39.25;;;;;;;;;;4988009;28;20408;-68
2021/03/23 03:39:01;;;;;;;79.60;34.60;;;;;;;;;;4986398;28;20177;-69
2021/03/23 03:41:27;;;;;;;81.70;36.83;;;;;;;;;;4986106;28;20030;-68
2021/03/23 03:43:53;;;;;;;83.50;38.78;;;;;;;;;;4989109;28;20717;-68
2021/03/23 03:46:20;;;;;;;83.53;37.08;;;;;;;;;;4991092;28;20031;-69
2021/03/23 03:48:46;;;;;;;83.65;33.97;;;;;;;;;;4997796;28;20087;-69
2021/03/23 03:51:12;;;;;;;85.85;38.15;;;;;;;;;;4988416;28;20023;-69
2021/03/23 03:53:38;;;;;;;88.40;37.67;;;;;;;;;;4988060;28;20049;-69
2021/03/23 03:56:05;;;;;;;93.07;35.83;;;;;;;;;;4984496;28;20443;-69
2021/03/23 03:58:31;;;;;;;91.70;37.20;;;;;;;;;;4980045;28;20038;-69
2021/03/23 04:00:57;;;;;;;90.40;36.50;;;;;;;;;;4988696;28;20031;-69
2021/03/23 04:03:25;;;;;;;92.65;38.35;;;;;;;;;;4984068;28;20054;-69
2021/03/23 04:05:52;;;;;;;81.90;36.42;;;;;;;;;;4989467;28;20040;-69
2021/03/23 04:08:20;;;;;;;83.43;35.58;;;;;;;;;;4980515;28;20607;-69
2021/03/23 04:10:47;;;;;;;88.72;39.58;;;;;;;;;;4984934;28;20023;-69
2021/03/23 04:13:13;;;;;;;81.30;36.05;;;;;;;;;;4984347;28;20026;-69
2021/03/23 04:15:41;;;;;;;96.65;39.05;;;;;;;;;;4989821;28;20030;-68
2021/03/23 04:18:08;;;;;;;88.10;37.08;;;;;;;;;;4981075;28;20092;-69
2021/03/23 04:20:35;;;;;;;88.63;36.95;;;;;;;;;;4978903;28;20026;-68
2021/03/23 04:23:01;;;;;;;86.10;36.00;;;;;;;;;;4987905;28;20039;-68
2021/03/23 04:25:29;;;;;;;86.65;35.10;;;;;;;;;;4985375;28;20058;-69
2021/03/23 04:27:56;;;;;;;86.43;36.40;;;;;;;;;;4982907;28;20034;-68
2021/03/23 04:30:23;;;;;;;94.50;38.67;;;;;;;;;;4970788;28;20050;-68
2021/03/23 04:32:49;;;;;;;87.50;37.35;;;;;;;;;;4982852;28;20113;-68
2021/03/23 04:35:25;;;;;;;90.35;39.75;;;;;;;;;;4974393;28;20033;-68
2021/03/23 04:37:51;;;;;;;94.82;40.97;;;;;;;;;;4980837;28;20093;-68
2021/03/23 04:40:17;;;;;;;87.65;36.80;;;;;;;;;;4981102;28;20049;-68
2021/03/23 04:42:43;;;;;;;99.53;40.92;;;;;;;;;;4980216;28;20394;-69
2021/03/23 04:45:09;;;;;;;103.47;39.72;;;;;;;;;;4985058;28;20030;-68
2021/03/23 04:47:35;;;;;;;98.70;39.97;;;;;;;;;;4988986;28;20030;-68
2021/03/23 04:50:02;;;;;;;103.10;40.15;;;;;;;;;;4981720;28;20282;-69
2021/03/23 04:52:28;;;;;;;87.40;35.75;;;;;;;;;;4989803;28;20088;-68
2021/03/23 04:54:54;;;;;;;96.47;40.28;;;;;;;;;;4990133;28;20053;-69
2021/03/23 04:57:20;;;;;;;85.22;37.65;;;;;;;;;;4985415;28;21151;-68
2021/03/23 04:59:46;;;;;;;84.15;38.80;;;;;;;;;;4987777;28;20492;-68
2021/03/23 05:02:12;;;;;;;98.82;37.75;;;;;;;;;;4985421;28;20165;-69
2021/03/23 05:04:38;;;;;;;95.00;39.42;;;;;;;;;;4986176;28;20100;-69
2021/03/23 05:07:04;;;;;;;88.07;37.00;;;;;;;;;;4988706;28;20116;-69
2021/03/23 05:09:30;;;;;;;96.68;40.08;;;;;;;;;;4987204;28;20034;-68
2021/03/23 05:11:56;;;;;;;103.47;39.58;;;;;;;;;;4979701;28;20038;-68
2021/03/23 05:14:22;;;;;;;100.80;38.67;;;;;;;;;;4978823;28;20034;-69
2021/03/23 05:16:48;;;;;;;98.32;37.90;;;;;;;;;;4979206;28;20031;-69
2021/03/23 05:19:14;;;;;;;95.30;40.10;;;;;;;;;;4986494;28;20031;-68
2021/03/23 05:21:40;;;;;;;93.65;36.90;;;;;;;;;;4983932;28;20031;-68
2021/03/23 05:24:06;;;;;;;91.63;38.72;;;;;;;;;;4987381;28;20382;-69
2021/03/23 05:26:32;;;;;;;84.05;32.90;;;;;;;;;;4986026;28;20150;-68
2021/03/23 05:28:59;;;;;;;104.63;38.20;;;;;;;;;;4983903;28;20397;-69
2021/03/23 05:31:25;;;;;;;105.13;40.40;;;;;;;;;;4990468;28;20014;-68
2021/03/23 05:33:52;;;;;;;96.63;37.00;;;;;;;;;;4980298;28;20109;-69
2021/03/23 05:36:18;;;;;;;94.50;38.92;;;;;;;;;;4990240;28;20027;-69
2021/03/23 05:38:44;;;;;;;94.82;37.13;;;;;;;;;;4980640;28;20049;-69
2021/03/23 05:41:28;;;;;;;118.03;42.22;;;;;;;;;;4983901;28;20092;-68
2021/03/23 05:43:54;;;;;;;113.57;42.78;;;;;;;;;;4977078;28;20022;-69
2021/03/23 05:46:20;;;;;;;117.25;44.30;;;;;;;;;;4978049;28;20516;-69
2021/03/23 05:48:55;;;;;;;107.70;42.53;;;;;;;;;;4977604;28;20033;-69
2021/03/23 05:51:31;;;;;;;112.70;45.50;;;;;;;;;;4979936;28;20065;-69
2021/03/23 05:54:04;;;;;;;111.18;40.47;;;;;;;;;;4980483;28;20031;-69
2021/03/23 05:56:33;;;;;;;112.32;42.72;;;;;;;;;;4994759;28;20456;-69
2021/03/23 05:59:03;;;;;;;112.15;44.70;;;;;;;;;;4986448;28;20108;-69
2021/03/23 06:01:36;;;;;;;115.07;42.58;;;;;;;;;;4989771;28;20370;-69
2021/03/23 06:04:04;;;;;;;115.45;41.17;;;;;;;;;;4986437;28;20026;-69
2021/03/23 06:06:42;;;;;;;104.40;39.53;;;;;;;;;;4985094;28;20033;-68
2021/03/23 06:09:12;;;;;;;110.88;38.50;;;;;;;;;;4983300;28;20018;-69
2021/03/23 06:11:38;;;;;;;109.90;38.63;;;;;;;;;;4979487;28;20021;-68
2021/03/23 06:14:22;;;;;;;95.18;39.28;;;;;;;;;;4981347;28;20022;-68
2021/03/23 06:17:09;;;;;;;105.22;37.10;;;;;;;;;;4977179;28;20105;-69
2021/03/23 06:19:41;;;;;;;97.70;34.35;;;;;;;;;;4972446;28;20707;-69
2021/03/23 06:22:10;;;;;;;98.78;37.50;;;;;;;;;;4989772;28;20112;-69
2021/03/23 06:24:36;;;;;;;107.03;38.85;;;;;;;;;;4985045;28;20401;-68
2021/03/23 06:27:12;;;;;;;86.93;35.42;;;;;;;;;;4976040;28;20048;-68
2021/03/23 06:29:57;;;;;;;97.57;36.97;;;;;;;;;;4975802;28;20054;-68
2021/03/23 06:32:32;;;;;;;91.55;36.72;;;;;;;;;;4983177;28;20081;-68
2021/03/23 06:35:00;;;;;;;92.80;35.17;;;;;;;;;;4981127;28;20042;-68
2021/03/23 06:37:32;;;;;;;100.63;39.35;;;;;;;;;;4981515;28;20038;-68
2021/03/23 06:39:58;;;;;;;;;;;;;;;;;;4982391;28;20452;-69
2021/03/23 06:42:51;;;;;;;94.00;36.30;;;;;;;;;;4983116;28;19942;-68
2021/03/23 06:45:37;;;;;;;94.57;37.05;;;;;;;;;;4979496;28;20034;-68
2021/03/23 06:48:22;;;;;;;108.38;44.55;;;;;;;;;;4985652;28;20029;-69
2021/03/23 06:50:49;;;;;;;89.68;33.33;;;;;;;;;;4983347;28;21695;-69
2021/03/23 06:53:22;;;;;;;106.10;39.05;;;;;;;;;;4983895;28;20178;-68
2021/03/23 06:55:49;;;;;;;88.72;36.75;;;;;;;;;;4983759;28;20030;-68
2021/03/23 06:58:21;;;;;;;90.97;33.38;;;;;;;;;;4981107;28;20027;-68
2021/03/23 07:00:47;;;;;;;92.38;36.90;;;;;;;;;;4984795;28;20037;-68
2021/03/23 07:03:26;;;;;;;99.88;37.35;;;;;;;;;;4979721;28;20026;-68
2021/03/23 07:05:53;;;;;;;105.68;41.53;;;;;;;;;;4977979;28;20046;-69
2021/03/23 07:08:21;;;;;;;106.00;39.95;;;;;;;;;;4974614;28;20026;-68
2021/03/23 07:10:53;;;;;;;98.30;36.05;;;;;;;;;;4978817;28;20019;-69
2021/03/23 07:13:28;;;;;;;107.45;43.35;;;;;;;;;;4984488;28;20030;-68
2021/03/23 07:15:59;;;;;;;102.57;41.40;;;;;;;;;;4979154;28;20027;-67
2021/03/23 07:18:28;;;;;;;105.18;42.13;;;;;;;;;;4982187;28;20437;-69
2021/03/23 07:20:56;;;;;;;101.53;41.10;;;;;;;;;;4984392;28;20403;-68
2021/03/23 07:23:26;;;;;;;115.82;41.28;;;;;;;;;;4979755;28;20499;-67
2021/03/23 07:25:52;;;;;;;92.28;40.28;;;;;;;;;;4983869;28;20420;-68
2021/03/23 07:28:18;;;;;;;86.85;32.72;;;;;;;;;;4982278;28;20495;-67
2021/03/23 07:30:45;;;;;;;104.25;40.30;;;;;;;;;;4978496;28;20022;-69
2021/03/23 07:33:18;;;;;;;104.60;42.67;;;;;;;;;;4982038;28;20137;-69
2021/03/23 07:35:45;;;;;;;98.63;35.55;;;;;;;;;;4980035;28;20105;-70
2021/03/23 07:38:23;;;;;;;96.07;39.58;;;;;;;;;;4980619;28;20505;-70
2021/03/23 07:40:51;;;;;;;103.68;42.03;;;;;;;;;;4984090;28;20117;-68
2021/03/23 07:43:23;;;;;;;98.90;42.97;;;;;;;;;;4985093;28;20047;-69
2021/03/23 07:46:01;;;;;;;98.43;38.03;;;;;;;;;;4982008;28;20022;-69
2021/03/23 07:48:33;;;;;;;93.78;36.60;;;;;;;;;;4979055;28;20508;-70
2021/03/23 07:51:15;;;;;;;91.55;37.58;;;;;;;;;;4984770;28;20554;-69
2021/03/23 07:53:40;;;;;;;;;;;;;;;;;;4985482;28;20042;-69
2021/03/23 07:56:24;;;;;;;90.05;35.60;;;;;;;;;;4982483;28;19924;-69
2021/03/23 07:59:11;;;;;;;85.40;40.83;;;;;;;;;;4984138;28;20041;-69
2021/03/23 08:01:55;;;;;;;84.10;34.80;;;;;;;;;;4984758;28;20026;-69
2021/03/23 08:04:40;;;;;;;82.43;35.15;;;;;;;;;;4985103;28;20225;-69
2021/03/23 08:07:16;;;;;;;83.45;37.10;;;;;;;;;;4984810;28;20027;-70
2021/03/23 08:09:55;;;;;;;79.00;31.85;;;;;;;;;;4984927;28;20691;-69
2021/03/23 08:12:39;;;;;;;73.53;33.33;;;;;;;;;;4985987;28;20022;-70
2021/03/23 08:15:12;;;;;;;68.75;31.85;;;;;;;;;;4983772;28;20026;-69
2021/03/23 08:17:44;;;;;;;67.57;32.03;;;;;;;;;;4985547;28;20034;-70
2021/03/23 08:20:24;;;;;;;78.75;29.40;;;;;;;;;;4982446;28;20165;-72
2021/03/23 08:23:00;;;;;;;62.42;26.10;;;;;;;;;;4981758;28;20069;-71
2021/03/23 08:25:31;;;;;;;67.72;26.27;;;;;;;;;;4983678;28;20022;-70
2021/03/23 08:28:00;;;;;;;70.05;27.83;;;;;;;;;;4984788;28;20049;-70
2021/03/23 08:30:46;;;;;;;70.93;28.33;;;;;;;;;;4984830;28;20039;-70
2021/03/23 08:33:12;;;;;;;67.43;27.90;;;;;;;;;;4979226;28;20043;-70
2021/03/23 08:35:57;;;;;;;75.65;33.10;;;;;;;;;;4981485;28;20022;-69
2021/03/23 08:38:35;;;;;;;68.95;25.77;;;;;;;;;;4980272;28;20423;-70
2021/03/23 08:41:01;;;;;;;71.25;32.03;;;;;;;;;;4985142;28;20026;-69
2021/03/23 08:43:38;;;;;;;72.22;32.55;;;;;;;;;;4983926;28;20049;-69
2021/03/23 08:46:05;;;;;;;65.95;32.20;;;;;;;;;;4984925;28;20018;-70
2021/03/23 08:48:37;;;;;;;70.28;32.72;;;;;;;;;;4983459;28;20080;-69
2021/03/23 08:51:05;;;;;;;76.05;34.05;;;;;;;;;;4982443;28;20019;-70
2021/03/23 08:53:32;;;;;;;73.95;32.47;;;;;;;;;;4985019;28;20038;-71
2021/03/23 08:55:58;;;;;;;73.18;34.03;;;;;;;;;;4985225;28;20027;-70
2021/03/23 08:58:44;;;;;;;65.03;31.15;;;;;;;;;;4983282;28;20030;-71
2021/03/23 09:01:16;;;;;;;55.17;29.40;;;;;;;;;;4983269;28;20036;-69
2021/03/23 09:03:44;;;;;;;58.63;25.88;;;;;;;;;;4981050;28;20030;-70
2021/03/23 09:06:12;;;;;;;53.00;27.63;;;;;;;;;;4983529;28;20038;-70
2021/03/23 09:08:39;;;;;;;51.38;25.95;;;;;;;;;;4983423;28;20022;-70
2021/03/23 09:11:07;;;;;;;44.35;21.08;;;;;;;;;;4986228;28;20054;-70
2021/03/23 09:13:36;;;;;;;46.25;21.75;;;;;;;;;;4989731;28;20022;-69
2021/03/23 09:16:03;;;;;;;46.33;25.67;;;;;;;;;;4988317;28;20031;-69
2021/03/23 09:18:30;;;;;;;57.25;24.58;;;;;;;;;;4985802;28;20015;-70
2021/03/23 09:20:56;;;;;;;46.33;22.17;;;;;;;;;;4982004;28;20420;-71
2021/03/23 09:23:26;;;;;;;45.40;21.50;;;;;;;;;;4981720;28;20511;-71
2021/03/23 09:25:53;;;;;;;51.88;24.58;;;;;;;;;;4982065;28;20105;-70
2021/03/23 09:28:44;;;;;;;42.83;22.98;;;;;;;;;;4980280;28;20232;-70
2021/03/23 09:31:17;;;;;;;37.42;20.02;;;;;;;;;;4983202;28;20023;-74
2021/03/23 09:33:43;;;;;;;35.15;15.93;;;;;;;;;;4979506;28;20126;-72
2021/03/23 09:36:13;;;;;;;45.15;21.45;;;;;;;;;;4982326;28;20030;-70
2021/03/23 09:38:48;;;;;;;44.97;23.67;;;;;;;;;;4978826;28;20222;-70
2021/03/23 09:41:23;;;;;;;44.80;24.15;;;;;;;;;;4997558;28;20070;-70
2021/03/23 09:43:50;;;;;;;40.05;22.17;;;;;;;;;;4983128;28;20113;-70
2021/03/23 09:46:37;;;;;;;42.00;21.48;;;;;;;;;;4980077;28;20094;-70
2021/03/23 09:49:11;;;;;;;36.60;18.75;;;;;;;;;;4978000;28;20039;-72
2021/03/23 09:51:54;;;;;;;44.88;20.20;;;;;;;;;;4983003;28;20054;-70
2021/03/23 09:54:23;;;;;;;43.90;18.67;;;;;;;;;;4983672;28;20061;-69
2021/03/23 09:56:50;;;;;;;44.45;20.80;;;;;;;;;;4982476;28;20030;-69
2021/03/23 09:59:18;;;;;;;42.03;21.02;;;;;;;;;;4983086;28;20041;-70
2021/03/23 10:02:03;;;;;;;42.13;20.20;;;;;;;;;;4980252;28;20602;-70
2021/03/23 10:04:35;;;;;;;43.65;20.05;;;;;;;;;;4977981;28;20047;-69
2021/03/23 10:07:01;;;;;;;;;;;;;;;;;;4979987;28;20117;-70
2021/03/23 10:09:29;;;;;;;33.22;18.67;;;;;;;;;;4978620;28;19930;-72
2021/03/23 10:11:55;;;;;;;40.35;20.02;;;;;;;;;;4981089;28;20022;-70
2021/03/23 10:14:31;;;;;;;41.00;21.40;;;;;;;;;;4980311;28;20081;-71
2021/03/23 10:17:09;;;;;;;42.47;20.45;;;;;;;;;;4996003;28;20373;-71
2021/03/23 10:19:49;;;;;;;47.03;20.88;;;;;;;;;;4976243;28;20189;-70
2021/03/23 10:22:17;;;;;;;42.83;20.92;;;;;;;;;;4982840;28;20050;-73
2021/03/23 10:24:45;;;;;;;47.95;23.00;;;;;;;;;;4984884;28;20595;-70
2021/03/23 10:27:20;;;;;;;34.75;15.43;;;;;;;;;;4982952;28;20051;-72
2021/03/23 10:30:05;;;;;;;45.92;22.05;;;;;;;;;;4995151;28;20039;-70
2021/03/23 10:32:36;;;;;;;46.20;20.10;;;;;;;;;;4980755;28;20038;-71
2021/03/23 10:35:13;;;;;;;46.20;22.35;;;;;;;;;;4981770;28;20034;-70
2021/03/23 10:37:40;;;;;;;42.78;21.92;;;;;;;;;;4983462;28;20034;-71
2021/03/23 10:40:07;;;;;;;32.85;15.75;;;;;;;;;;4980052;28;20267;-70
2021/03/23 10:42:35;;;;;;;51.33;24.65;;;;;;;;;;4982622;28;20019;-70
2021/03/23 10:45:24;;;;;;;48.90;22.30;;;;;;;;;;4980176;28;20049;-72
2021/03/23 10:48:00;;;;;;;53.65;24.05;;;;;;;;;;4981027;28;20101;-69
2021/03/23 10:50:27;;;;;;;47.88;24.10;;;;;;;;;;4980686;28;20076;-70
2021/03/23 10:53:07;;;;;;;45.83;24.20;;;;;;;;;;4983498;28;20084;-70
2021/03/23 10:55:34;;;;;;;52.30;24.17;;;;;;;;;;4982072;28;20038;-73
2021/03/23 10:58:14;;;;;;;48.83;21.85;;;;;;;;;;4977058;28;20038;-70
2021/03/23 11:00:40;;;;;;;46.97;25.08;;;;;;;;;;4979395;28;20030;-70
2021/03/23 11:03:14;;;;;;;47.35;23.45;;;;;;;;;;4976310;28;20034;-69
2021/03/23 11:05:48;;;;;;;63.25;25.88;;;;;;;;;;4980769;28;20125;-70
2021/03/23 11:08:15;;;;;;;48.63;24.88;;;;;;;;;;4982564;28;20027;-71
2021/03/23 11:10:41;;;;;;;45.40;17.85;;;;;;;;;;4984137;28;20025;-72
2021/03/23 11:13:07;;;;;;;49.85;21.92;;;;;;;;;;4982693;28;20018;-70
2021/03/23 11:15:39;;;;;;;47.05;23.15;;;;;;;;;;4983574;28;20571;-70
2021/03/23 11:18:11;;;;;;;52.88;24.95;;;;;;;;;;4982181;28;20127;-72
2021/03/23 11:20:38;;;;;;;;;;;;;;;;;;4985672;28;20034;-70
2021/03/23 11:23:18;;;;;;;51.33;25.67;;;;;;;;;;4982125;28;20359;-71
2021/03/23 11:25:44;;;;;;;52.50;25.50;;;;;;;;;;4984710;28;20669;-72
2021/03/23 11:28:16;;;;;;;46.28;23.60;;;;;;;;;;4983375;28;20097;-70
2021/03/23 11:30:42;;;;;;;48.60;23.40;;;;;;;;;;4981523;28;20908;-70
2021/03/23 11:33:09;;;;;;;52.78;27.45;;;;;;;;;;4984542;28;20023;-70
2021/03/23 11:35:35;;;;;;;53.10;23.95;;;;;;;;;;4981300;28;20031;-71
2021/03/23 11:38:01;;;;;;;48.60;23.10;;;;;;;;;;4982127;28;20030;-72
2021/03/23 11:40:27;;;;;;;59.10;27.50;;;;;;;;;;4980986;28;20518;-70
2021/03/23 11:42:53;;;;;;;36.58;19.63;;;;;;;;;;4984985;28;20034;-72
2021/03/23 11:45:29;;;;;;;55.00;25.50;;;;;;;;;;4986712;28;20315;-72
2021/03/23 11:48:03;;;;;;;60.38;31.23;;;;;;;;;;4986743;28;20065;-70
2021/03/23 11:50:31;;;;;;;59.38;29.02;;;;;;;;;;4978410;28;20114;-71
2021/03/23 11:52:57;;;;;;;56.38;27.33;;;;;;;;;;4987229;28;20064;-71
2021/03/23 11:55:27;;;;;;;62.38;30.02;;;;;;;;;;4984388;28;20371;-72
2021/03/23 11:57:53;;;;;;;65.15;32.28;;;;;;;;;;4985911;28;20018;-71
2021/03/23 12:00:21;;;;;;;68.38;30.02;;;;;;;;;;4981940;28;20590;-72
2021/03/23 12:02:47;;;;;;;59.30;30.88;;;;;;;;;;4983993;28;20034;-71
2021/03/23 12:05:14;;;;;;;44.80;20.55;;;;;;;;;;4984602;28;20109;-72
2021/03/23 12:07:48;;;;;;;59.05;26.92;;;;;;;;;;4985333;28;20034;-71
2021/03/23 12:10:14;;;;;;;49.75;22.35;;;;;;;;;;4986267;28;20030;-73
2021/03/23 12:12:50;;;;;;;67.10;29.90;;;;;;;;;;4984056;28;20114;-70
2021/03/23 12:15:16;;;;;;;52.88;23.40;;;;;;;;;;4988131;28;20015;-73
2021/03/23 12:17:46;;;;;;;54.80;23.45;;;;;;;;;;4982551;28;20030;-71
2021/03/23 12:20:15;;;;;;;62.70;32.22;;;;;;;;;;4982950;28;20372;-70
2021/03/23 12:22:42;;;;;;;72.10;34.05;;;;;;;;;;4984086;28;20026;-71
2021/03/23 12:25:09;;;;;;;65.72;27.25;;;;;;;;;;4983137;28;20030;-70
2021/03/23 12:27:35;;;;;;;67.32;30.60;;;;;;;;;;4985949;28;20121;-70
2021/03/23 12:30:02;;;;;;;66.93;27.52;;;;;;;;;;4981059;28;20026;-71
2021/03/23 12:32:28;;;;;;;67.90;32.35;;;;;;;;;;4989393;28;20025;-70
2021/03/23 12:34:54;;;;;;;62.90;29.13;;;;;;;;;;4987199;28;20570;-69
2021/03/23 12:37:21;;;;;;;65.63;32.08;;;;;;;;;;4981991;28;20493;-69
2021/03/23 12:39:47;;;;;;;74.93;29.50;;;;;;;;;;4981319;28;20396;-72
2021/03/23 12:42:17;;;;;;;80.22;31.38;;;;;;;;;;4986438;28;20022;-72
2021/03/23 12:44:43;;;;;;;69.63;31.67;;;;;;;;;;4977133;28;20034;-71
2021/03/23 12:47:11;;;;;;;79.93;35.78;;;;;;;;;;4989648;28;20033;-69
2021/03/23 12:49:37;;;;;;;87.53;34.30;;;;;;;;;;4994913;28;20053;-71
2021/03/23 12:52:03;;;;;;;74.25;29.83;;;;;;;;;;4981900;28;20022;-72
2021/03/23 12:54:34;;;;;;;69.22;26.20;;;;;;;;;;4974626;28;20074;-75
2021/03/23 12:57:00;;;;;;;79.40;33.65;;;;;;;;;;4987579;28;20113;-72
2021/03/23 12:59:27;;;;;;;64.63;24.45;;;;;;;;;;4975257;28;20030;-75
2021/03/23 13:01:54;;;;;;;82.38;33.67;;;;;;;;;;4985202;28;20034;-70
2021/03/23 13:04:21;;;;;;;83.78;34.17;;;;;;;;;;4984438;28;20065;-69
2021/03/23 13:06:48;;;;;;;71.82;33.72;;;;;;;;;;4991926;28;20497;-69
2021/03/23 13:09:14;;;;;;;71.80;28.38;;;;;;;;;;4981572;28;20030;-72
2021/03/23 13:11:48;;;;;;;78.55;35.40;;;;;;;;;;4983176;28;20023;-70
2021/03/23 13:14:20;;;;;;;74.53;33.67;;;;;;;;;;4973976;28;20497;-70
2021/03/23 13:16:46;;;;;;;;;;;;;;;;;;4992652;28;20019;-71
2021/03/23 13:19:12;;;;;;;71.88;33.17;;;;;;;;;;4981837;28;19920;-70
2021/03/23 13:21:41;;;;;;;77.18;33.08;;;;;;;;;;4986832;28;20440;-70
2021/03/23 13:24:22;;;;;;;74.85;34.03;;;;;;;;;;4984854;28;20038;-70
2021/03/23 13:26:48;;;;;;;64.20;28.73;;;;;;;;;;4985658;28;20042;-71
2021/03/23 13:29:14;;;;;;;71.35;35.55;;;;;;;;;;4984573;28;20030;-70
2021/03/23 13:31:42;;;;;;;68.95;31.50;;;;;;;;;;4987124;28;20026;-71
2021/03/23 13:34:15;;;;;;;64.32;32.50;;;;;;;;;;4980899;28;20080;-69
2021/03/23 13:36:42;;;;;;;65.60;33.33;;;;;;;;;;4979248;28;20055;-69
2021/03/23 13:39:20;;;;;;;70.13;35.03;;;;;;;;;;4980555;28;20038;-70
2021/03/23 13:41:48;;;;;;;73.45;32.22;;;;;;;;;;4984516;28;20041;-70
2021/03/23 13:44:33;;;;;;;67.05;30.27;;;;;;;;;;4984630;28;20106;-70
2021/03/23 13:46:59;;;;;;;75.13;32.47;;;;;;;;;;4986215;28;20026;-69
2021/03/23 13:49:26;;;;;;;65.30;33.00;;;;;;;;;;4991060;28;20034;-70
2021/03/23 13:51:52;;;;;;;63.45;30.17;;;;;;;;;;4985179;28;20030;-69
2021/03/23 13:54:19;;;;;;;60.03;28.13;;;;;;;;;;4983933;28;20350;-69
2021/03/23 13:56:45;;;;;;;59.65;29.42;;;;;;;;;;4988490;28;20080;-70
2021/03/23 13:59:19;;;;;;;64.50;31.45;;;;;;;;;;4984128;28;20117;-70
2021/03/23 14:01:45;;;;;;;59.55;29.55;;;;;;;;;;4979318;28;20086;-68
2021/03/23 14:04:11;;;;;;;58.35;27.90;;;;;;;;;;4979479;28;20099;-69
2021/03/23 14:06:37;;;;;;;60.65;28.25;;;;;;;;;;4984937;28;20054;-69
2021/03/23 14:09:05;;;;;;;55.45;25.02;;;;;;;;;;4975051;28;20018;-70
2021/03/23 14:11:32;;;;;;;62.90;28.52;;;;;;;;;;4989533;28;20019;-69
2021/03/23 14:13:58;;;;;;;55.88;28.00;;;;;;;;;;4986373;28;20523;-69
2021/03/23 14:16:24;;;;;;;46.85;26.02;;;;;;;;;;4989869;28;20027;-70
2021/03/23 14:18:52;;;;;;;49.55;24.17;;;;;;;;;;4979723;28;20084;-69
2021/03/23 14:21:19;;;;;;;48.65;25.65;;;;;;;;;;4984497;28;20030;-69
2021/03/23 14:23:48;;;;;;;54.45;25.55;;;;;;;;;;4986201;28;20038;-69
2021/03/23 14:26:15;;;;;;;52.85;26.52;;;;;;;;;;4990674;28;20023;-68
2021/03/23 14:28:49;;;;;;;59.80;30.08;;;;;;;;;;4975467;28;20102;-69
2021/03/23 14:31:15;;;;;;;61.10;31.13;;;;;;;;;;4973957;28;20030;-69